createdAt,value
2022-08-08T00:00:51.092Z,33935.67
2022-08-08T00:02:43.208Z,33961.50
2022-08-08T00:06:00.879Z,34017.86
2022-08-08T00:08:38.931Z,33627.59
2022-08-08T00:11:23.461Z,34145.14
2022-08-08T00:14:16.754Z,34004.38
2022-08-08T00:17:22.472Z,33937.98
2022-08-08T00:20:14.606Z,33899.65
2022-08-08T00:22:50.236Z,33999.60
2022-08-08T00:25:28.714Z,34117.43
2022-08-08T00:28:35.803Z,34262.38
2022-08-08T00:32:28.683Z,34113.73
2022-08-08T00:34:27.035Z,34147.00
2022-08-08T00:37:08.168Z,33764.79
2022-08-08T00:41:10.512Z,34270.04
2022-08-08T00:43:11.789Z,34226.68
2022-08-08T00:46:16.401Z,34068.52
2022-08-08T00:48:59.290Z,34137.90
2022-08-08T00:51:45.826Z,34159.04
2022-08-08T00:54:37.182Z,34549.38
2022-08-08T00:57:29.480Z,33912.14
2022-08-08T01:00:04.831Z,34314.09
2022-08-08T01:04:01.425Z,34210.01
2022-08-08T01:06:31.557Z,34254.22
2022-08-08T01:09:36.783Z,34281.77
2022-08-08T01:12:12.314Z,34306.71
2022-08-08T01:14:57.318Z,34173.29
2022-08-08T01:18:02.617Z,34046.49
2022-08-08T01:21:03.061Z,34068.70
2022-08-08T01:24:06.096Z,34064.71
2022-08-08T01:27:10.813Z,34129.18
2022-08-08T01:30:01.637Z,34221.36
2022-08-08T01:33:16.334Z,34261.19
2022-08-08T01:36:14.470Z,34366.12
2022-08-08T01:39:06.568Z,34119.24
2022-08-08T01:41:46.323Z,34197.48
2022-08-08T01:44:34.624Z,33993.82
2022-08-08T01:48:16.781Z,34291.09
2022-08-08T01:50:00.312Z,34158.71
2022-08-08T01:53:03.547Z,33989.02
2022-08-08T01:56:31.118Z,33959.25
2022-08-08T01:58:55.185Z,33986.75
2022-08-08T02:01:59.555Z,34162.43
2022-08-08T02:05:00.427Z,34413.62
2022-08-08T02:07:50.012Z,34041.94
2022-08-08T02:10:46.017Z,34548.62
2022-08-08T02:13:52.615Z,34266.32
2022-08-08T02:16:25.055Z,34045.43
2022-08-08T02:19:26.916Z,34471.16
2022-08-08T02:22:12.297Z,34246.76
2022-08-08T02:24:52.074Z,34552.94
2022-08-08T02:27:42.352Z,34275.09
2022-08-08T02:30:24.687Z,34373.58
2022-08-08T02:33:41.490Z,34306.07
2022-08-08T02:36:57.180Z,34231.04
2022-08-08T02:39:40.795Z,34502.32
2022-08-08T02:42:15.190Z,34249.30
2022-08-08T02:45:21.538Z,34412.14
2022-08-08T02:48:06.768Z,34016.96
2022-08-08T02:50:55.620Z,34061.11
2022-08-08T02:53:25.566Z,34070.93
2022-08-08T02:56:04.322Z,34491.54
2022-08-08T02:58:30.888Z,34073.15
2022-08-08T03:00:57.537Z,34676.97
2022-08-08T03:05:01.608Z,34108.26
2022-08-08T03:06:50.530Z,34396.04
2022-08-08T03:09:54.017Z,34469.63
2022-08-08T03:13:01.186Z,33893.10
2022-08-08T03:16:03.869Z,34213.93
2022-08-08T03:18:57.443Z,34141.37
2022-08-08T03:21:26.885Z,34616.49
2022-08-08T03:24:07.568Z,34618.13
2022-08-08T03:26:43.115Z,34323.94
2022-08-08T03:29:27.030Z,34352.46
2022-08-08T03:32:08.802Z,34408.02
2022-08-08T03:34:39.924Z,34185.82
2022-08-08T03:37:59.629Z,34508.50
2022-08-08T03:40:02.419Z,34230.27
2022-08-08T03:42:31.399Z,34444.84
2022-08-08T03:44:58.778Z,34610.03
2022-08-08T03:47:25.557Z,34060.43
2022-08-08T03:50:20.017Z,34220.36
2022-08-08T03:52:51.685Z,34382.41
2022-08-08T03:55:56.022Z,34669.68
2022-08-08T03:58:34.082Z,34357.47
2022-08-08T04:01:20.568Z,34552.79
2022-08-08T04:03:59.210Z,34449.41
2022-08-08T04:06:29.873Z,34290.80
2022-08-08T04:08:58.787Z,34544.48
2022-08-08T04:11:58.481Z,34023.43
2022-08-08T04:14:44.963Z,34431.96
2022-08-08T04:17:22.557Z,34305.79
2022-08-08T04:19:59.653Z,34597.74
2022-08-08T04:22:29.850Z,34163.07
2022-08-08T04:24:57.400Z,34168.22
2022-08-08T04:28:02.417Z,34474.56
2022-08-08T04:30:17.374Z,34558.67
2022-08-08T04:32:48.124Z,34485.73
2022-08-08T04:35:22.350Z,34352.54
2022-08-08T04:37:49.656Z,34206.79
2022-08-08T04:40:19.074Z,34544.12
2022-08-08T04:42:57.020Z,34237.40
2022-08-08T04:45:27.922Z,34376.54
2022-08-08T04:47:55.244Z,34628.24
2022-08-08T04:50:25.436Z,33857.11
2022-08-08T04:53:01.058Z,34313.69
2022-08-08T04:55:47.561Z,34509.49
2022-08-08T04:58:18.547Z,34265.71
2022-08-08T05:00:47.695Z,34200.88
2022-08-08T05:03:19.160Z,34004.57
2022-08-08T05:06:12.996Z,34093.50
2022-08-08T05:08:51.382Z,34554.04
2022-08-08T05:11:23.881Z,34373.68
2022-08-08T05:13:57.859Z,34363.91
2022-08-08T05:16:51.150Z,34683.41
2022-08-08T05:20:09.841Z,35020.93
2022-08-08T05:22:08.132Z,34170.89
2022-08-08T05:24:37.466Z,34548.48
2022-08-08T05:27:05.458Z,34375.09
2022-08-08T05:29:32.173Z,34159.77
2022-08-08T05:32:06.475Z,34284.52
2022-08-08T05:34:44.362Z,34414.61
2022-08-08T05:37:18.859Z,34710.21
2022-08-08T05:39:50.986Z,34182.83
2022-08-08T05:42:19.598Z,34234.50
2022-08-08T05:44:57.357Z,34572.04
2022-08-08T05:47:41.774Z,34782.69
2022-08-08T05:50:18.364Z,34358.22
2022-08-08T05:52:45.030Z,35149.02
2022-08-08T05:55:14.583Z,34429.87
2022-08-08T05:58:04.580Z,34732.32
2022-08-08T06:00:34.054Z,35404.63
2022-08-08T06:03:02.676Z,35373.89
2022-08-08T06:05:34.225Z,35172.36
2022-08-08T06:08:10.537Z,35141.89
2022-08-08T06:10:53.797Z,34668.36
2022-08-08T06:13:23.590Z,35077.79
2022-08-08T06:15:53.775Z,34251.35
2022-08-08T06:18:24.320Z,34703.87
2022-08-08T06:21:03.648Z,33861.14
2022-08-08T06:23:52.735Z,34149.51
2022-08-08T06:26:38.327Z,33616.45
2022-08-08T06:29:48.824Z,33481.26
2022-08-08T06:32:15.282Z,33651.96
2022-08-08T06:34:52.473Z,33482.76
2022-08-08T06:37:45.377Z,33844.30
2022-08-08T06:40:20.748Z,33563.80
2022-08-08T06:43:09.567Z,33234.77
2022-08-08T06:45:38.976Z,33401.95
2022-08-08T06:48:06.161Z,33296.34
2022-08-08T06:50:38.446Z,33171.44
2022-08-08T06:53:09.585Z,33144.72
2022-08-08T06:55:42.162Z,32852.89
2022-08-08T06:58:10.398Z,33086.76
2022-08-08T07:00:40.981Z,33399.91
2022-08-08T07:04:35.954Z,33307.70
2022-08-08T07:06:19.175Z,33120.95
2022-08-08T07:08:49.672Z,32895.50
2022-08-08T07:11:22.052Z,32864.37
2022-08-08T07:14:01.176Z,32544.57
2022-08-08T07:16:56.270Z,33388.61
2022-08-08T07:19:40.179Z,33106.22
2022-08-08T07:22:11.848Z,33010.84
2022-08-08T07:24:58.658Z,33284.71
2022-08-08T07:27:35.427Z,33112.71
2022-08-08T07:30:21.275Z,33023.47
2022-08-08T07:32:53.391Z,33182.79
2022-08-08T07:35:21.745Z,32948.96
2022-08-08T07:38:04.861Z,33087.32
2022-08-08T07:40:38.330Z,33042.35
2022-08-08T07:43:09.359Z,33004.34
2022-08-08T07:46:05.319Z,33195.17
2022-08-08T07:48:25.626Z,33374.38
2022-08-08T07:50:59.415Z,32986.10
2022-08-08T07:54:00.793Z,33084.57
2022-08-08T07:56:36.220Z,33413.68
2022-08-08T07:59:14.245Z,33195.11
2022-08-08T08:02:35.200Z,33078.86
2022-08-08T08:04:46.651Z,32483.89
2022-08-08T08:07:17.130Z,33189.00
2022-08-08T08:09:44.502Z,32368.37
2022-08-08T08:12:31.660Z,32541.89
2022-08-08T08:15:09.462Z,32641.49
2022-08-08T08:17:48.859Z,33047.92
2022-08-08T08:20:18.740Z,32735.66
2022-08-08T08:22:47.415Z,33275.73
2022-08-08T08:25:16.919Z,32977.27
2022-08-08T08:27:47.302Z,32940.63
2022-08-08T08:30:14.508Z,32859.48
2022-08-08T08:32:51.517Z,32660.22
2022-08-08T08:35:21.482Z,32852.94
2022-08-08T08:38:16.193Z,32822.70
2022-08-08T08:40:43.957Z,33183.42
2022-08-08T08:43:18.698Z,33660.44
2022-08-08T08:45:47.744Z,32957.54
2022-08-08T08:48:19.943Z,32613.46
2022-08-08T08:50:51.935Z,32425.01
2022-08-08T08:53:28.042Z,32676.33
2022-08-08T08:56:07.807Z,32533.33
2022-08-08T08:58:50.409Z,32578.30
2022-08-08T09:01:22.965Z,32233.51
2022-08-08T09:03:51.408Z,32140.99
2022-08-08T09:06:34.326Z,32369.18
2022-08-08T09:09:35.544Z,32372.13
2022-08-08T09:12:10.993Z,32405.99
2022-08-08T09:14:42.882Z,32143.05
2022-08-08T09:17:17.940Z,32077.20
2022-08-08T09:21:56.135Z,32412.05
2022-08-08T09:22:35.088Z,32113.53
2022-08-08T09:25:04.522Z,32360.72
2022-08-08T09:27:56.255Z,32235.98
2022-08-08T09:30:19.960Z,32197.47
2022-08-08T09:33:12.775Z,32277.31
2022-08-08T09:35:49.863Z,32479.78
2022-08-08T09:38:53.772Z,32013.06
2022-08-08T09:41:33.354Z,31909.93
2022-08-08T09:44:29.796Z,31804.61
2022-08-08T09:47:26.539Z,32048.58
2022-08-08T09:49:58.915Z,31980.31
2022-08-08T09:52:56.146Z,32179.68
2022-08-08T09:55:51.350Z,32227.46
2022-08-08T09:58:25.926Z,31983.79
2022-08-08T10:01:03.246Z,32189.26
2022-08-08T10:03:46.090Z,32285.12
2022-08-08T10:06:26.874Z,32210.53
2022-08-08T10:08:57.336Z,32034.67
2022-08-08T10:12:23.169Z,31777.44
2022-08-08T10:14:35.239Z,31688.13
2022-08-08T10:16:59.082Z,31969.78
2022-08-08T10:19:46.170Z,32281.10
2022-08-08T10:22:25.974Z,31739.08
2022-08-08T10:25:06.556Z,31823.15
2022-08-08T10:27:43.391Z,32083.93
2022-08-08T10:30:16.712Z,32258.55
2022-08-08T10:33:00.849Z,32032.81
2022-08-08T10:36:08.010Z,32069.87
2022-08-08T10:38:20.161Z,32199.17
2022-08-08T10:40:51.783Z,32132.09
2022-08-08T10:43:18.763Z,32301.24
2022-08-08T10:45:56.618Z,32470.94
2022-08-08T10:48:57.476Z,32204.17
2022-08-08T10:51:24.149Z,32005.20
2022-08-08T10:53:58.927Z,32010.35
2022-08-08T10:56:34.883Z,31986.47
2022-08-08T10:59:07.099Z,32290.58
2022-08-08T11:01:36.526Z,32234.42
2022-08-08T11:04:08.463Z,32060.23
2022-08-08T11:06:41.770Z,32126.00
2022-08-08T11:09:20.189Z,32076.25
2022-08-08T11:12:06.408Z,32222.03
2022-08-08T11:14:55.587Z,32193.90
2022-08-08T11:17:59.489Z,31952.05
2022-08-08T11:20:24.975Z,31718.38
2022-08-08T11:22:56.911Z,32189.34
2022-08-08T11:25:53.000Z,32015.38
2022-08-08T11:28:25.779Z,32111.60
2022-08-08T11:30:56.418Z,31928.97
2022-08-08T11:33:52.978Z,31910.84
2022-08-08T11:36:13.283Z,31858.92
2022-08-08T11:38:54.234Z,32265.00
2022-08-08T11:41:33.561Z,32046.23
2022-08-08T11:44:01.670Z,31738.63
2022-08-08T11:46:31.484Z,31895.72
2022-08-08T11:49:04.043Z,32009.85
2022-08-08T11:51:40.483Z,31940.92
2022-08-08T11:54:32.328Z,31725.79
2022-08-08T11:57:13.943Z,31802.96
2022-08-08T12:00:06.288Z,31901.25
2022-08-08T12:02:51.054Z,32074.76
2022-08-08T12:05:18.744Z,31744.42
2022-08-08T12:07:56.722Z,31816.82
2022-08-08T12:10:26.574Z,31475.08
2022-08-08T12:13:09.520Z,31919.06
2022-08-08T12:15:46.755Z,31939.71
2022-08-08T12:18:16.083Z,31930.74
2022-08-08T12:20:48.406Z,31972.96
2022-08-08T12:23:30.600Z,31857.62
2022-08-08T12:26:16.759Z,31995.89
2022-08-08T12:28:54.491Z,32045.48
2022-08-08T12:31:30.458Z,31795.68
2022-08-08T12:34:06.260Z,31883.87
2022-08-08T12:36:46.336Z,31689.65
2022-08-08T12:39:13.448Z,31691.56
2022-08-08T12:41:57.543Z,32000.91
2022-08-08T12:44:48.235Z,31959.93
2022-08-08T12:47:57.855Z,31914.67
2022-08-08T12:50:15.074Z,31906.48
2022-08-08T12:52:52.475Z,31712.50
2022-08-08T12:55:35.412Z,31985.17
2022-08-08T12:58:09.973Z,31425.01
2022-08-08T13:00:42.658Z,31640.22
2022-08-08T13:03:22.542Z,31736.45
2022-08-08T13:06:04.031Z,31599.88
2022-08-08T13:08:53.425Z,31826.71
2022-08-08T13:12:24.568Z,31817.10
2022-08-08T13:14:19.901Z,32026.47
2022-08-08T13:16:49.362Z,32143.07
2022-08-08T13:19:17.907Z,31770.38
2022-08-08T13:21:53.376Z,31716.67
2022-08-08T13:24:42.384Z,31932.91
2022-08-08T13:27:17.338Z,32093.43
2022-08-08T13:29:52.801Z,31931.44
2022-08-08T13:32:25.293Z,31784.48
2022-08-08T13:34:57.644Z,31762.29
2022-08-08T13:37:52.227Z,31666.08
2022-08-08T13:40:17.430Z,31743.22
2022-08-08T13:42:53.713Z,31840.13
2022-08-08T13:45:23.995Z,31965.75
2022-08-08T13:48:03.030Z,31940.01
2022-08-08T13:50:49.324Z,31827.48
2022-08-08T13:53:31.408Z,31776.82
2022-08-08T13:56:02.939Z,31504.99
2022-08-08T13:58:30.490Z,31462.20
2022-08-08T14:00:57.727Z,31557.21
2022-08-08T14:03:52.486Z,31929.98
2022-08-08T14:06:44.803Z,31616.11
2022-08-08T14:09:24.339Z,31675.17
2022-08-08T14:11:58.886Z,31560.12
2022-08-08T14:14:44.336Z,31428.79
2022-08-08T14:17:36.333Z,31827.50
2022-08-08T14:20:06.826Z,31699.76
2022-08-08T14:22:42.969Z,31561.75
2022-08-08T14:25:15.527Z,31521.25
2022-08-08T14:27:59.963Z,31352.51
2022-08-08T14:30:34.555Z,32051.08
2022-08-08T14:33:01.824Z,31729.58
2022-08-08T14:35:35.632Z,31567.14
2022-08-08T14:38:34.723Z,31855.44
2022-08-08T14:40:58.819Z,31640.19
2022-08-08T14:44:02.702Z,31356.17
2022-08-08T14:46:15.714Z,31687.51
2022-08-08T14:48:56.934Z,31846.14
2022-08-08T14:51:47.312Z,31516.42
2022-08-08T14:54:14.095Z,31829.61
2022-08-08T14:56:48.457Z,31913.86
2022-08-08T14:59:22.162Z,31754.55
2022-08-08T15:01:58.660Z,31965.64
2022-08-08T15:04:26.417Z,31969.49
2022-08-08T15:06:53.207Z,31707.69
2022-08-08T15:09:19.857Z,32147.03
2022-08-08T15:11:53.456Z,31877.92
2022-08-08T15:14:25.067Z,31779.18
2022-08-08T15:16:53.789Z,31913.55
2022-08-08T15:19:21.268Z,31813.01
2022-08-08T15:21:50.539Z,31922.28
2022-08-08T15:24:17.179Z,31759.81
2022-08-08T15:26:52.629Z,31834.30
2022-08-08T15:29:22.537Z,31776.93
2022-08-08T15:32:19.991Z,32010.00
2022-08-08T15:34:38.736Z,31751.94
2022-08-08T15:37:06.690Z,32042.72
2022-08-08T15:39:39.624Z,32088.13
2022-08-08T15:42:13.168Z,31280.59
2022-08-08T15:44:45.305Z,31828.53
2022-08-08T15:47:16.156Z,31822.29
2022-08-08T15:49:46.123Z,31688.73
2022-08-08T15:52:17.685Z,31806.45
2022-08-08T15:54:51.314Z,31580.79
2022-08-08T15:57:19.080Z,31722.61
2022-08-08T16:00:05.623Z,31803.11
2022-08-08T16:02:33.024Z,31812.38
2022-08-08T16:05:04.015Z,32244.43
2022-08-08T16:07:51.172Z,31797.89
2022-08-08T16:13:20.914Z,32005.24
2022-08-08T16:13:33.512Z,31904.65
2022-08-08T16:15:57.259Z,32332.49
2022-08-08T16:18:26.585Z,31958.39
2022-08-08T16:20:53.330Z,32163.36
2022-08-08T16:23:19.977Z,32030.49
2022-08-08T16:25:54.701Z,31947.24
2022-08-08T16:28:34.916Z,32065.01
2022-08-08T16:31:07.936Z,32034.77
2022-08-08T16:33:39.199Z,32032.65
2022-08-08T16:36:12.989Z,31752.08
2022-08-08T16:38:47.713Z,31990.58
2022-08-08T16:41:22.736Z,32227.86
2022-08-08T16:43:52.125Z,32293.58
2022-08-08T16:46:37.620Z,31908.15
2022-08-08T16:49:08.805Z,31916.62
2022-08-08T16:55:04.699Z,32432.81
2022-08-08T16:55:19.496Z,32051.61
2022-08-08T16:58:12.000Z,32057.41
2022-08-08T16:59:59.336Z,32430.42
2022-08-08T17:02:38.672Z,32295.86
2022-08-08T17:05:10.205Z,32603.58
2022-08-08T17:07:40.672Z,31974.18
2022-08-08T17:10:10.049Z,32105.74
2022-08-08T17:12:38.755Z,31748.00
2022-08-08T17:15:20.578Z,31751.51
2022-08-08T17:18:03.139Z,32229.33
2022-08-08T17:20:32.330Z,31706.30
2022-08-08T17:23:25.869Z,31854.42
2022-08-08T17:25:52.440Z,31822.79
2022-08-08T17:28:30.728Z,31822.19
2022-08-08T17:31:43.640Z,31758.48
2022-08-08T17:34:48.198Z,31753.12
2022-08-08T17:36:58.020Z,31735.63
2022-08-08T17:40:05.173Z,31469.08
2022-08-08T17:42:15.959Z,31526.29
2022-08-08T17:44:45.669Z,31790.69
2022-08-08T17:47:23.272Z,31688.73
2022-08-08T17:49:52.484Z,31531.09
2022-08-08T17:52:23.023Z,31801.89
2022-08-08T17:54:51.936Z,31184.86
2022-08-08T17:57:23.680Z,31424.60
2022-08-08T17:59:51.694Z,31552.37
2022-08-08T18:02:26.213Z,31826.38
2022-08-08T18:04:56.129Z,31805.79
2022-08-08T18:08:01.965Z,31271.04
2022-08-08T18:10:09.836Z,31671.16
2022-08-08T18:12:39.018Z,31685.19
2022-08-08T18:15:07.356Z,31636.64
2022-08-08T18:18:05.226Z,31846.48
2022-08-08T18:20:43.081Z,31898.17
2022-08-08T18:23:14.650Z,31673.85
2022-08-08T18:25:42.402Z,31664.14
2022-08-08T18:28:12.993Z,31895.88
2022-08-08T18:30:41.537Z,31860.35
2022-08-08T18:33:10.592Z,31826.11
2022-08-08T18:35:48.548Z,31827.27
2022-08-08T18:38:17.102Z,31650.27
2022-08-08T18:40:46.164Z,31797.28
2022-08-08T18:43:16.603Z,31750.78
2022-08-08T18:46:53.283Z,31890.79
2022-08-08T18:48:31.698Z,31903.82
2022-08-08T18:50:59.065Z,31768.53
2022-08-08T18:54:00.218Z,31810.65
2022-08-08T18:56:25.292Z,31603.53
2022-08-08T18:58:53.873Z,32045.63
2022-08-08T19:02:25.576Z,31919.71
2022-08-08T19:04:12.503Z,31883.60
2022-08-08T19:06:39.872Z,31465.99
2022-08-08T19:09:13.381Z,31859.89
2022-08-08T19:11:46.364Z,32140.13
2022-08-08T19:14:20.271Z,31971.04
2022-08-08T19:16:48.406Z,31891.41
2022-08-08T19:19:15.513Z,32162.42
2022-08-08T19:21:47.936Z,32030.02
2022-08-08T19:24:34.195Z,32108.48
2022-08-08T19:27:04.853Z,32345.36
2022-08-08T19:29:34.017Z,32104.97
2022-08-08T19:32:02.379Z,32022.95
2022-08-08T19:34:38.779Z,32192.52
2022-08-08T19:37:08.359Z,32447.59
2022-08-08T19:39:45.523Z,32359.44
2022-08-08T19:42:15.373Z,32187.06
2022-08-08T19:44:43.245Z,32126.61
2022-08-08T19:47:14.479Z,32278.56
2022-08-08T19:49:43.061Z,32240.97
2022-08-08T19:52:10.695Z,32285.89
2022-08-08T19:54:40.093Z,32389.66
2022-08-08T19:57:09.921Z,32259.38
2022-08-08T19:59:38.314Z,32562.12
2022-08-08T20:02:05.593Z,32554.32
2022-08-08T20:04:33.475Z,32381.75
2022-08-08T20:08:27.865Z,32646.93
2022-08-08T20:09:56.551Z,32806.90
2022-08-08T20:12:32.713Z,32350.63
2022-08-08T20:15:14.612Z,32472.65
2022-08-08T20:17:46.118Z,32348.16
2022-08-08T20:20:19.608Z,32640.72
2022-08-08T20:22:52.723Z,32708.22
2022-08-08T20:25:21.670Z,32545.54
2022-08-08T20:27:50.217Z,32249.29
2022-08-08T20:30:52.542Z,32118.99
2022-08-08T20:33:20.164Z,33011.61
2022-08-08T20:35:57.102Z,32611.44
2022-08-08T20:38:29.128Z,32720.23
2022-08-08T20:40:59.233Z,33676.50
2022-08-08T20:43:44.218Z,33581.45
2022-08-08T20:46:12.986Z,33941.35
2022-08-08T20:48:39.689Z,33681.82
2022-08-08T20:51:09.717Z,33374.66
2022-08-08T20:53:58.793Z,33480.24
2022-08-08T20:56:35.139Z,33668.70
2022-08-08T20:59:08.887Z,33579.32
2022-08-08T21:02:06.726Z,33688.30
2022-08-08T21:04:27.626Z,33445.10
2022-08-08T21:06:56.031Z,33900.91
2022-08-08T21:09:23.044Z,33884.16
2022-08-08T21:11:50.810Z,33728.75
2022-08-08T21:14:30.266Z,33978.65
2022-08-08T21:17:01.299Z,33494.48
2022-08-08T21:19:33.915Z,33824.43
2022-08-08T21:22:11.776Z,33720.26
2022-08-08T21:24:39.701Z,33629.73
2022-08-08T21:27:38.443Z,33893.50
2022-08-08T21:30:03.869Z,33858.05
2022-08-08T21:32:34.614Z,33676.98
2022-08-08T21:36:13.616Z,33793.32
2022-08-08T21:37:55.305Z,33776.32
2022-08-08T21:40:31.109Z,33588.49
2022-08-08T21:42:59.183Z,33894.65
2022-08-08T21:47:59.698Z,33482.59
2022-08-08T21:48:19.702Z,34064.35
2022-08-08T21:50:48.237Z,33672.04
2022-08-08T21:54:31.635Z,33932.19
2022-08-08T21:56:28.110Z,34004.16
2022-08-08T21:58:54.798Z,33647.34
2022-08-08T22:01:39.471Z,33595.83
2022-08-08T22:04:11.014Z,33935.16
2022-08-08T22:06:40.405Z,34001.54
2022-08-08T22:09:09.014Z,34210.64
2022-08-08T22:11:51.135Z,34101.70
2022-08-08T22:14:26.984Z,33902.48
2022-08-08T22:16:56.428Z,34303.54
2022-08-08T22:19:29.039Z,34016.93
2022-08-08T22:21:56.896Z,34362.27
2022-08-08T22:24:23.905Z,34244.37
2022-08-08T22:27:01.320Z,34198.34
2022-08-08T22:29:59.552Z,34847.12
2022-08-08T22:32:17.947Z,34936.46
2022-08-08T22:34:50.788Z,34637.72
2022-08-08T22:37:49.455Z,34651.87
2022-08-08T22:40:16.610Z,34136.29
2022-08-08T22:42:47.248Z,34800.99
2022-08-08T22:45:14.815Z,34394.24
2022-08-08T22:47:47.061Z,34085.99
2022-08-08T22:50:25.528Z,34553.79
2022-08-08T22:54:28.463Z,34278.54
2022-08-08T22:55:59.190Z,34424.59
2022-08-08T22:58:34.184Z,34687.76
2022-08-08T23:01:26.658Z,34319.07
2022-08-08T23:03:57.015Z,34134.26
2022-08-08T23:06:27.135Z,34708.31
2022-08-08T23:09:00.205Z,35618.91
2022-08-08T23:11:30.950Z,34881.40
2022-08-08T23:14:19.644Z,35256.37
2022-08-08T23:16:54.793Z,34758.51
2022-08-08T23:19:30.848Z,34998.97
2022-08-08T23:22:05.083Z,35296.17
2022-08-08T23:24:36.882Z,35368.40
2022-08-08T23:27:09.233Z,35034.72
2022-08-08T23:29:37.278Z,34998.88
2022-08-08T23:32:05.444Z,35084.64
2022-08-08T23:34:33.915Z,35353.63
2022-08-08T23:37:02.505Z,35483.29
2022-08-08T23:39:42.023Z,35258.04
2022-08-08T23:42:16.374Z,35168.76
2022-08-08T23:44:43.048Z,35708.24
2022-08-08T23:49:05.977Z,35689.93
2022-08-08T23:50:03.152Z,34790.41
2022-08-08T23:52:32.906Z,35533.18
2022-08-08T23:55:07.116Z,35792.30
2022-08-08T23:57:52.843Z,35713.27
